Aérodrome :
LOGIN :

S'inscrire | Disclaimer

   EN    FR    IT 

 










Légende :    VFR   VFR Marginal   IFR   IFR Intensif   IFR Très Intensif
Visi : 
Plafond : 
>= 8 km
>= 3000ft
5 à 8 km
1000 à 3000 ft
1500m à 5 km
500 à 1000 ft
800 à 1500m
200 à 500 ft
< 800m
< 200 ft
Symboles :   Orages  Brouillard  Fortes neiges  Fortes précipitations  Vent > 20 kt
SIGMETs :   Divers  Orages  Givrage  Turbulence  Onde Orograph.  Cendres Volcan.






- Altitude de l'aérodrome : 24 ft
- Code IATA : IBZ


LEIB - Ibiza

DERNIER METAR :
  • 061430Z 08010KT 9999 17/13 Q1021 NOSIG

METARs EXPIRÉS :
  • 061400Z 08010KT 050V110 9999 FEW030 17/13 Q1021 NOSIG
  • 061330Z 09010KT FEW030 17/13 Q1022 NOSIG
  • 061300Z 08010KT 9999 FEW030 17/13 Q1022 NOSIG
  • 061230Z 08009KT 9999 FEW030 17/13 Q1022 NOSIG

TAF TAF LEIB
Valide du 06 à 15h jusqu'au 07 à 15h UTC


061400Z 0615/0715 VRB04KT 9999 FEW020 TX16/0713Z TN09/0706Z
PROB40
TEMPO 0615/0618 06010KT
PROB30
TEMPO 0623/0708 3000 BR



MET'MAP, la Météo Aéronautique d'un coup d'oeil ! - Copyright ORBIFLY Décembre 2007 - Disclaimer

ORBIFLY MET'MAP TEAM :

Programmation & Développement : Alexandra Zaïnal
Sur une idée originale de : Baudouin d'Aumeries
Assistance à la programmation : Marc-Olivier Méhu
Soutien technique & logistique : Manuel Goepfert

Contact : metmap@orbifly.com




SOURCES & CREDITS :

   NOAA